Eviapetrol I — SY5401 — position and weather

sailwx.info

Track history (hours):
 
Tides and Currents Weather Stations Pressure Air Temp Water Temp Dewpoint Dewpoint Depression Visibility Wind Speed Wind Dir Waves Ship Positions

Eviapetrol I

Last reported at 2014-Aug-23 03:33 UTC. Time now 2014-Aug-23 03:39 UTC.
Position N 38°02' E 023°32'.

Length 75 m; draft 5.9 m.

Type: Tanker. MMSI: 240285000.

Date/timePositionNaut miles runAvg speedWind from/ knotsBaromVisibWave heightAir tempDewpointWater temp
2014-Aug-23 03:33N 38°02' E 023°32'0 0.0
2014-Aug-22 19:15N 38°02' E 023°32'3 0.6
2014-Aug-22 14:05N 38°02' E 023°36'0 0.0
2014-Aug-22 09:06N 38°02' E 023°35'3 6.0
2014-Aug-22 08:33N 37°59' E 023°33'9 9.5
2014-Aug-22 07:33N 37°51' E 023°39'10 9.8
2014-Aug-22 06:33N 37°42' E 023°44'10 9.3
2014-Aug-22 05:29N 37°38' E 023°56'20 9.0
2014-Aug-22 03:17N 37°45' E 024°19'7 9.1
2014-Aug-22 02:33N 37°50' E 024°25'9 9.0
2014-Aug-22 01:32N 37°56' E 024°34'86 2.7
2014-Aug-20 17:33N 38°08' E 026°22'19 9.7
2014-Aug-20 15:33N 37°56' E 026°41'9 8.9
2014-Aug-20 14:33N 37°51' E 026°50'138 5.1
2014-Aug-19 11:28N 37°37' E 023°56'8 9.0
2014-Aug-19 10:33N 37°39' E 023°46'9 9.0
2014-Aug-19 09:33N 37°45' E 023°39'9 9.4
2014-Aug-19 08:33N 37°55' E 023°36'7 6.6
2014-Aug-19 07:30N 38°01' E 023°32'0 0.0
2014-Aug-19 06:33N 38°01' E 023°32'0 0.1
2014-Aug-19 05:27N 38°01' E 023°32'0 0.1
2014-Aug-19 04:27N 38°01' E 023°32'0 0.0
2014-Aug-19 03:33N 38°01' E 023°32'0 0.0
2014-Aug-19 02:33N 38°01' E 023°32'0 0.0
2014-Aug-19 01:33N 38°01' E 023°32'3 0.4
2014-Aug-18 19:15N 38°02' E 023°36'0 0.0
2014-Aug-18 15:27N 38°02' E 023°36'0 0.0
2014-Aug-18 10:03N 38°02' E 023°36'0 0.0
2014-Aug-18 09:26N 38°02' E 023°36'1 0.8
2014-Aug-18 08:33N 38°01' E 023°35'0 0.0
2014-Aug-18 07:33N 38°01' E 023°35'0 0.0
2014-Aug-18 06:28N 38°01' E 023°35'4 4.7
2014-Aug-18 05:33N 37°57' E 023°34'6 6.1
2014-Aug-18 04:33N 37°52' E 023°38'8 8.3
2014-Aug-18 03:33N 37°45' E 023°42'11 8.7
2014-Aug-18 02:19N 37°38' E 023°53'99 9.9
2014-Aug-17 16:19N 38°32' E 025°39'42 1.5
2014-Aug-16 12:33N 38°08' E 026°23'1310.0
2014-Aug-16 11:16N 38°00' E 026°36'7 9.6
2014-Aug-16 10:34N 37°55' E 026°42'6 0.1
2014-Aug-14 16:33N 37°52' E 026°48'1010.0
2014-Aug-14 15:33N 37°58' E 026°38'10 9.3
2014-Aug-14 14:28N 38°05' E 026°28'34 1.8
2014-Aug-13 19:33N 38°06' E 025°45'10 9.5
2014-Aug-13 18:33N 38°05' E 025°33'11 9.5
2014-Aug-13 17:24N 38°04' E 025°20'43 8.5
2014-Aug-13 12:23N 37°51' E 024°28'7 9.0
2014-Aug-13 11:33N 37°46' E 024°21'20 8.8
2014-Aug-13 09:19N 37°37' E 023°59'7 9.3
2014-Aug-13 08:32N 37°38' E 023°50'9 8.8
2014-Aug-13 07:33N 37°43' E 023°41'9 8.9
2014-Aug-13 06:33N 37°49' E 023°33'10 9.2
2014-Aug-13 05:30N 37°54' E 023°23'10 7.5
2014-Aug-13 04:09N 38°01' E 023°32'  
Track history (hours):
 
Tides and Currents Weather Stations Pressure Air Temp Water Temp Dewpoint Dewpoint Depression Visibility Wind Speed Wind Dir Waves Ship Positions

Eviapetrol I

Last reported at 2014-Aug-23 03:33 UTC. Time now 2014-Aug-23 03:39 UTC.
Position N 38°02' E 023°32'.

Length 75 m; draft 5.9 m.

Type: Tanker. MMSI: 240285000.

Date/timePositionNaut miles runAvg speedWind from/ knotsBaromVisibWave heightAir tempDewpointWater temp
2014-Aug-23 03:33N 38°02' E 023°32'0 0.0
2014-Aug-22 19:15N 38°02' E 023°32'3 0.6
2014-Aug-22 14:05N 38°02' E 023°36'0 0.0
2014-Aug-22 09:06N 38°02' E 023°35'3 6.0
2014-Aug-22 08:33N 37°59' E 023°33'9 9.5
2014-Aug-22 07:33N 37°51' E 023°39'10 9.8
2014-Aug-22 06:33N 37°42' E 023°44'10 9.3
2014-Aug-22 05:29N 37°38' E 023°56'20 9.0
2014-Aug-22 03:17N 37°45' E 024°19'7 9.1
2014-Aug-22 02:33N 37°50' E 024°25'9 9.0
2014-Aug-22 01:32N 37°56' E 024°34'86 2.7
2014-Aug-20 17:33N 38°08' E 026°22'19 9.7
2014-Aug-20 15:33N 37°56' E 026°41'9 8.9
2014-Aug-20 14:33N 37°51' E 026°50'138 5.1
2014-Aug-19 11:28N 37°37' E 023°56'8 9.0
2014-Aug-19 10:33N 37°39' E 023°46'9 9.0
2014-Aug-19 09:33N 37°45' E 023°39'9 9.4
2014-Aug-19 08:33N 37°55' E 023°36'7 6.6
2014-Aug-19 07:30N 38°01' E 023°32'0 0.0
2014-Aug-19 06:33N 38°01' E 023°32'0 0.1
2014-Aug-19 05:27N 38°01' E 023°32'0 0.1
2014-Aug-19 04:27N 38°01' E 023°32'0 0.0
2014-Aug-19 03:33N 38°01' E 023°32'0 0.0
2014-Aug-19 02:33N 38°01' E 023°32'0 0.0
2014-Aug-19 01:33N 38°01' E 023°32'3 0.4
2014-Aug-18 19:15N 38°02' E 023°36'0 0.0
2014-Aug-18 15:27N 38°02' E 023°36'0 0.0
2014-Aug-18 10:03N 38°02' E 023°36'0 0.0
2014-Aug-18 09:26N 38°02' E 023°36'1 0.8
2014-Aug-18 08:33N 38°01' E 023°35'0 0.0
2014-Aug-18 07:33N 38°01' E 023°35'0 0.0
2014-Aug-18 06:28N 38°01' E 023°35'4 4.7
2014-Aug-18 05:33N 37°57' E 023°34'6 6.1
2014-Aug-18 04:33N 37°52' E 023°38'8 8.3
2014-Aug-18 03:33N 37°45' E 023°42'11 8.7
2014-Aug-18 02:19N 37°38' E 023°53'99 9.9
2014-Aug-17 16:19N 38°32' E 025°39'42 1.5
2014-Aug-16 12:33N 38°08' E 026°23'1310.0
2014-Aug-16 11:16N 38°00' E 026°36'7 9.6
2014-Aug-16 10:34N 37°55' E 026°42'6 0.1
2014-Aug-14 16:33N 37°52' E 026°48'1010.0
2014-Aug-14 15:33N 37°58' E 026°38'10 9.3
2014-Aug-14 14:28N 38°05' E 026°28'34 1.8
2014-Aug-13 19:33N 38°06' E 025°45'10 9.5
2014-Aug-13 18:33N 38°05' E 025°33'11 9.5
2014-Aug-13 17:24N 38°04' E 025°20'43 8.5
2014-Aug-13 12:23N 37°51' E 024°28'7 9.0
2014-Aug-13 11:33N 37°46' E 024°21'20 8.8
2014-Aug-13 09:19N 37°37' E 023°59'7 9.3
2014-Aug-13 08:32N 37°38' E 023°50'9 8.8
2014-Aug-13 07:33N 37°43' E 023°41'9 8.9
2014-Aug-13 06:33N 37°49' E 023°33'10 9.2
2014-Aug-13 05:30N 37°54' E 023°23'10 7.5
2014-Aug-13 04:09N 38°01' E 023°32'  

Dump ship's entire track history